Time;durP1;ratioP1;P1;durP2;ratioP2;P2;SDS_P1;SDS_P2;PMS_P1;PMS_P2;Temp;Humidity;BMP_temperature;BMP_pressure;BME280_temperature;BME280_humidity;BME280_pressure;Samples;Min_cycle;Max_cycle;Signal;HPM_P1;HPM_P2
2022/11/27 00:00:54;;;;;;;5.33;4.60;;;;;;;;;;5045774;28;20538;-66
2022/11/27 00:03:20;;;;;;;6.60;6.07;;;;;;;;;;5015661;28;21034;-66
2022/11/27 00:05:53;;;;;;;5.63;5.20;;;;;;;;;;5045226;28;20430;-66
2022/11/27 00:08:19;;;;;;;6.00;5.50;;;;;;;;;;5046048;28;20473;-66
2022/11/27 00:10:45;;;;;;;7.10;6.40;;;;;;;;;;5048780;28;21090;-66
2022/11/27 00:13:11;;;;;;;11.27;6.63;;;;;;;;;;5048471;28;20512;-66
2022/11/27 00:15:37;;;;;;;7.60;6.57;;;;;;;;;;5047772;28;20450;-66
2022/11/27 00:18:03;;;;;;;12.10;6.17;;;;;;;;;;5047241;28;20976;-66
2022/11/27 00:20:29;;;;;;;11.83;7.80;;;;;;;;;;5048312;28;20452;-66
2022/11/27 00:22:55;;;;;;;6.97;6.37;;;;;;;;;;5050018;28;20476;-66
2022/11/27 00:25:21;;;;;;;8.80;6.83;;;;;;;;;;5047835;28;20958;-66
2022/11/27 00:27:47;;;;;;;9.63;6.40;;;;;;;;;;5049706;28;20837;-66
2022/11/27 00:30:14;;;;;;;9.73;7.33;;;;;;;;;;5047664;28;20425;-66
2022/11/27 00:32:40;;;;;;;5.93;5.43;;;;;;;;;;5030704;28;20449;-66
2022/11/27 00:35:06;;;;;;;5.80;5.27;;;;;;;;;;5048613;28;20418;-66
2022/11/27 00:37:32;;;;;;;9.93;7.50;;;;;;;;;;5048949;28;20779;-66
2022/11/27 00:39:58;;;;;;;5.50;5.00;;;;;;;;;;5048973;28;20422;-66
2022/11/27 00:42:24;;;;;;;5.90;5.40;;;;;;;;;;5045853;28;20449;-66
2022/11/27 00:44:50;;;;;;;15.77;6.47;;;;;;;;;;5030635;28;20442;-66
2022/11/27 00:47:16;;;;;;;17.63;6.50;;;;;;;;;;5050547;28;20973;-66
2022/11/27 00:49:42;;;;;;;6.10;5.50;;;;;;;;;;5047555;28;20461;-66
2022/11/27 00:52:08;;;;;;;7.10;5.50;;;;;;;;;;5053157;28;20406;-66
2022/11/27 00:54:35;;;;;;;5.17;4.80;;;;;;;;;;5052998;28;20828;-66
2022/11/27 00:57:00;;;;;;;7.87;5.77;;;;;;;;;;5050313;28;20797;-66
2022/11/27 00:59:26;;;;;;;12.63;6.37;;;;;;;;;;5052195;28;21023;-66
2022/11/27 01:01:52;;;;;;;10.03;6.50;;;;;;;;;;5052830;28;20420;-66
2022/11/27 01:04:18;;;;;;;8.00;5.77;;;;;;;;;;5051533;28;20446;-66
2022/11/27 01:06:44;;;;;;;10.10;6.27;;;;;;;;;;5052630;28;20484;-66
2022/11/27 01:09:11;;;;;;;8.07;6.50;;;;;;;;;;5035115;28;20438;-66
2022/11/27 01:11:37;;;;;;;8.63;6.17;;;;;;;;;;5052906;28;20933;-66
2022/11/27 01:14:06;;;;;;;10.97;7.20;;;;;;;;;;5051916;28;20430;-66
2022/11/27 01:16:32;;;;;;;8.87;6.70;;;;;;;;;;5049684;28;20951;-66
2022/11/27 01:18:59;;;;;;;9.60;7.63;;;;;;;;;;5053192;28;20919;-66
2022/11/27 01:21:26;;;;;;;19.80;6.90;;;;;;;;;;5052836;28;20422;-66
2022/11/27 01:23:53;;;;;;;6.73;6.13;;;;;;;;;;5049224;28;20926;-66
2022/11/27 01:26:19;;;;;;;10.17;6.53;;;;;;;;;;5052262;28;20922;-66
2022/11/27 01:28:45;;;;;;;12.33;5.40;;;;;;;;;;5049806;28;20616;-66
2022/11/27 01:31:19;;;;;;;8.47;5.63;;;;;;;;;;5052655;28;20967;-66
2022/11/27 01:33:46;;;;;;;6.00;5.40;;;;;;;;;;5049789;28;20444;-66
2022/11/27 01:36:13;;;;;;;9.40;7.20;;;;;;;;;;5053247;28;20426;-66
2022/11/27 01:38:39;;;;;;;13.47;8.67;;;;;;;;;;5050912;28;20441;-66
2022/11/27 01:41:16;;;;;;;15.20;7.27;;;;;;;;;;5050791;28;20434;-65
2022/11/27 01:43:42;;;;;;;9.30;6.60;;;;;;;;;;5034699;28;20462;-66
2022/11/27 01:46:27;;;;;;;7.60;5.63;;;;;;;;;;5052719;28;20915;-66
2022/11/27 01:48:54;;;;;;;8.47;5.60;;;;;;;;;;5050277;28;20887;-66
2022/11/27 01:51:21;;;;;;;5.73;5.23;;;;;;;;;;5051935;28;20426;-66
2022/11/27 01:53:48;;;;;;;6.93;5.03;;;;;;;;;;5049604;28;20792;-66
2022/11/27 01:56:14;;;;;;;8.90;5.40;;;;;;;;;;5050910;28;20939;-66
2022/11/27 01:58:40;;;;;;;13.03;6.03;;;;;;;;;;5052012;28;20421;-66
2022/11/27 02:01:06;;;;;;;9.90;7.03;;;;;;;;;;5050796;28;20438;-66
2022/11/27 02:03:32;;;;;;;16.67;10.40;;;;;;;;;;5052154;28;20949;-66
2022/11/27 02:05:58;;;;;;;14.93;10.10;;;;;;;;;;5047282;28;20434;-66
2022/11/27 02:08:25;;;;;;;16.00;11.17;;;;;;;;;;5050453;28;20482;-66
2022/11/27 02:10:57;;;;;;;19.90;9.63;;;;;;;;;;5049580;28;20445;-66
2022/11/27 02:13:30;;;;;;;14.20;9.13;;;;;;;;;;5049285;28;20442;-66
2022/11/27 02:16:11;;;;;;;23.00;11.17;;;;;;;;;;5050530;28;20958;-66
2022/11/27 02:18:45;;;;;;;12.63;8.97;;;;;;;;;;5034233;28;20427;-66
2022/11/27 02:21:11;;;;;;;12.73;8.70;;;;;;;;;;5051562;28;20419;-66
2022/11/27 02:23:56;;;;;;;15.77;9.30;;;;;;;;;;5050655;28;20801;-66
2022/11/27 02:26:28;;;;;;;9.00;6.90;;;;;;;;;;5048611;28;20511;-66
2022/11/27 02:28:54;;;;;;;9.70;7.70;;;;;;;;;;5051797;28;20474;-66
2022/11/27 02:31:29;;;;;;;7.93;7.23;;;;;;;;;;5050714;28;20426;-66
2022/11/27 02:33:58;;;;;;;8.10;6.73;;;;;;;;;;5049010;28;20437;-66
2022/11/27 02:36:28;;;;;;;10.20;7.57;;;;;;;;;;5051726;28;20432;-66
2022/11/27 02:39:07;;;;;;;9.53;6.70;;;;;;;;;;5050495;28;20442;-66
2022/11/27 02:41:36;;;;;;;14.87;8.57;;;;;;;;;;5050638;28;20430;-66
2022/11/27 02:44:05;;;;;;;8.87;8.00;;;;;;;;;;5050769;28;20433;-66
2022/11/27 02:46:32;;;;;;;11.30;7.60;;;;;;;;;;5050577;28;20430;-66
2022/11/27 02:49:01;;;;;;;10.00;7.70;;;;;;;;;;5033575;28;20612;-66
2022/11/27 02:51:36;;;;;;;15.20;9.20;;;;;;;;;;5048401;28;20449;-66
2022/11/27 02:54:03;;;;;;;13.40;9.20;;;;;;;;;;5046758;28;20430;-66
2022/11/27 02:56:30;;;;;;;16.27;9.80;;;;;;;;;;5015773;28;20445;-66
2022/11/27 02:58:58;;;;;;;14.77;9.67;;;;;;;;;;5051151;28;20524;-66
2022/11/27 03:01:27;;;;;;;14.00;9.20;;;;;;;;;;5029544;28;20443;-66
2022/11/27 03:03:54;;;;;;;14.13;8.70;;;;;;;;;;5049460;28;20489;-66
2022/11/27 03:06:29;;;;;;;24.20;10.80;;;;;;;;;;5047608;28;20991;-66
2022/11/27 03:09:02;;;;;;;16.10;8.70;;;;;;;;;;5050269;28;20482;-67
2022/11/27 03:11:31;;;;;;;17.50;9.67;;;;;;;;;;5050750;28;20507;-66
2022/11/27 03:13:59;;;;;;;15.50;7.70;;;;;;;;;;5050339;28;20941;-66
2022/11/27 03:16:31;;;;;;;15.87;8.33;;;;;;;;;;5050076;28;20430;-66
2022/11/27 03:19:00;;;;;;;19.73;10.23;;;;;;;;;;5050939;28;20427;-66
2022/11/27 03:21:33;;;;;;;13.27;8.60;;;;;;;;;;5047948;28;20995;-66
2022/11/27 03:30:09;;;;;;;12.60;8.30;;;;;;;;;;5036244;28;20434;-66
2022/11/27 03:32:35;;;;;;;11.20;8.00;;;;;;;;;;5048496;28;20426;-66
2022/11/27 03:35:01;;;;;;;12.93;9.07;;;;;;;;;;5049917;28;20511;-66
2022/11/27 03:37:27;;;;;;;13.33;8.00;;;;;;;;;;5050539;28;20922;-67
2022/11/27 03:39:53;;;;;;;11.23;7.90;;;;;;;;;;5048313;28;20434;-66
2022/11/27 03:42:24;;;;;;;13.00;8.97;;;;;;;;;;5050044;28;20696;-66
2022/11/27 03:45:01;;;;;;;13.20;7.57;;;;;;;;;;5047585;28;20431;-66
2022/11/27 03:47:39;;;;;;;11.13;7.20;;;;;;;;;;5050011;28;20485;-67
2022/11/27 03:50:18;;;;;;;14.47;8.83;;;;;;;;;;5048150;28;20528;-66
2022/11/27 03:52:49;;;;;;;10.47;7.40;;;;;;;;;;5046398;28;20882;-66
2022/11/27 03:55:17;;;;;;;12.60;8.43;;;;;;;;;;5047996;28;20438;-66
2022/11/27 03:57:59;;;;;;;14.80;9.03;;;;;;;;;;5048737;28;20441;-66
2022/11/27 04:00:25;;;;;;;18.07;8.57;;;;;;;;;;5049523;28;21001;-66
2022/11/27 04:02:52;;;;;;;14.90;7.57;;;;;;;;;;5049306;28;20426;-66
2022/11/27 04:05:18;;;;;;;12.30;8.00;;;;;;;;;;5046253;28;20503;-66
2022/11/27 04:07:44;;;;;;;14.97;8.70;;;;;;;;;;5049632;28;20831;-66
2022/11/27 04:10:11;;;;;;;13.30;8.27;;;;;;;;;;5031649;28;20425;-66
2022/11/27 04:12:37;;;;;;;11.53;8.10;;;;;;;;;;5050058;28;20966;-66
2022/11/27 04:15:04;;;;;;;15.87;9.10;;;;;;;;;;5048333;28;20961;-66
2022/11/27 04:17:29;;;;;;;12.67;8.70;;;;;;;;;;5049395;28;20434;-66
2022/11/27 04:19:55;;;;;;;13.00;8.33;;;;;;;;;;5048575;28;20430;-66
2022/11/27 04:22:21;;;;;;;12.10;8.40;;;;;;;;;;5044346;28;20423;-66
2022/11/27 04:24:48;;;;;;;14.03;7.83;;;;;;;;;;5047952;28;20442;-66
2022/11/27 04:27:14;;;;;;;12.00;8.20;;;;;;;;;;5049566;28;20880;-66
2022/11/27 04:29:40;;;;;;;15.40;9.57;;;;;;;;;;5047818;28;20533;-66
2022/11/27 04:32:06;;;;;;;15.30;8.87;;;;;;;;;;5047417;28;20509;-66
2022/11/27 04:34:32;;;;;;;11.23;7.57;;;;;;;;;;5046867;28;20442;-66
2022/11/27 04:36:58;;;;;;;13.13;8.57;;;;;;;;;;5049641;28;20906;-66
2022/11/27 04:39:24;;;;;;;14.17;8.30;;;;;;;;;;5049462;28;20439;-66
2022/11/27 04:41:50;;;;;;;13.03;8.57;;;;;;;;;;5028716;28;20488;-66
2022/11/27 04:44:16;;;;;;;15.50;8.47;;;;;;;;;;5047144;28;20450;-66
2022/11/27 04:46:42;;;;;;;10.10;7.33;;;;;;;;;;5026792;28;20442;-66
2022/11/27 04:49:09;;;;;;;13.70;9.47;;;;;;;;;;5049711;28;20810;-67
2022/11/27 04:51:35;;;;;;;10.37;8.10;;;;;;;;;;5049404;28;20421;-66
2022/11/27 04:54:01;;;;;;;8.90;7.33;;;;;;;;;;5029766;28;20950;-66
2022/11/27 04:56:27;;;;;;;20.00;9.63;;;;;;;;;;5047080;28;20520;-66
2022/11/27 04:58:53;;;;;;;14.27;7.13;;;;;;;;;;5031510;28;20569;-66
2022/11/27 05:01:19;;;;;;;11.60;7.03;;;;;;;;;;5048595;28;20891;-67
2022/11/27 05:03:46;;;;;;;12.80;7.27;;;;;;;;;;5047362;28;20529;-66
2022/11/27 05:06:12;;;;;;;9.73;7.60;;;;;;;;;;5047453;28;20513;-66
2022/11/27 05:08:38;;;;;;;12.67;7.73;;;;;;;;;;5048968;28;20628;-66
2022/11/27 05:11:10;;;;;;;9.53;5.40;;;;;;;;;;5049223;28;20949;-66
2022/11/27 05:13:36;;;;;;;8.60;6.50;;;;;;;;;;5045562;28;20434;-66
2022/11/27 05:16:02;;;;;;;6.97;5.40;;;;;;;;;;5048727;28;20483;-66
2022/11/27 05:18:28;;;;;;;5.77;5.10;;;;;;;;;;5049009;28;20462;-66
2022/11/27 05:21:02;;;;;;;9.43;6.43;;;;;;;;;;5046624;28;20503;-66
2022/11/27 05:23:28;;;;;;;8.80;6.20;;;;;;;;;;5048636;28;20877;-66
2022/11/27 05:25:54;;;;;;;9.20;5.33;;;;;;;;;;5045538;28;20426;-66
2022/11/27 05:28:21;;;;;;;10.43;5.80;;;;;;;;;;5049248;28;20563;-66
2022/11/27 05:30:47;;;;;;;11.17;6.23;;;;;;;;;;5046601;28;20495;-66
2022/11/27 05:33:14;;;;;;;7.63;5.50;;;;;;;;;;5047762;28;20525;-66
2022/11/27 05:35:41;;;;;;;11.07;6.30;;;;;;;;;;5051432;28;20534;-66
2022/11/27 05:38:07;;;;;;;10.90;6.27;;;;;;;;;;5050454;28;20430;-66
2022/11/27 05:40:33;;;;;;;6.73;5.37;;;;;;;;;;5052954;28;20453;-66
2022/11/27 05:42:59;;;;;;;6.77;5.00;;;;;;;;;;5032265;28;20466;-66
2022/11/27 05:45:25;;;;;;;10.40;5.70;;;;;;;;;;5048297;28;20484;-66
2022/11/27 05:47:51;;;;;;;8.07;5.77;;;;;;;;;;5052480;28;20486;-66
2022/11/27 05:50:17;;;;;;;6.87;5.20;;;;;;;;;;5052325;28;20509;-66
2022/11/27 05:52:43;;;;;;;11.63;6.60;;;;;;;;;;5052586;28;20446;-66
2022/11/27 05:55:09;;;;;;;7.90;5.83;;;;;;;;;;5044109;28;20443;-66
2022/11/27 05:57:35;;;;;;;7.33;5.80;;;;;;;;;;5052196;28;20431;-66
2022/11/27 06:00:01;;;;;;;10.00;6.40;;;;;;;;;;5016760;28;20482;-66
2022/11/27 06:02:27;;;;;;;10.93;6.37;;;;;;;;;;5049988;28;20536;-66
2022/11/27 06:04:53;;;;;;;8.77;5.30;;;;;;;;;;5050519;28;20980;-67
2022/11/27 06:07:19;;;;;;;8.83;5.70;;;;;;;;;;5052383;28;20469;-66
2022/11/27 06:09:45;;;;;;;7.30;5.77;;;;;;;;;;5049075;28;20551;-66
2022/11/27 06:12:11;;;;;;;9.30;6.20;;;;;;;;;;5051975;28;20418;-67
2022/11/27 06:14:37;;;;;;;10.63;6.60;;;;;;;;;;5050008;28;20430;-66
2022/11/27 06:17:03;;;;;;;9.67;6.87;;;;;;;;;;5052105;28;20426;-66
2022/11/27 06:19:30;;;;;;;9.73;7.13;;;;;;;;;;5051302;28;20441;-67
2022/11/27 06:21:56;;;;;;;10.90;6.83;;;;;;;;;;5019228;28;20557;-67
2022/11/27 06:24:22;;;;;;;8.17;6.37;;;;;;;;;;5042220;28;20453;-67
2022/11/27 06:26:48;;;;;;;7.77;6.27;;;;;;;;;;5048823;28;20430;-66
2022/11/27 06:29:14;;;;;;;6.93;5.23;;;;;;;;;;5050323;28;20935;-67
2022/11/27 06:31:40;;;;;;;11.13;7.10;;;;;;;;;;5049749;28;20522;-66
2022/11/27 06:34:06;;;;;;;11.80;7.03;;;;;;;;;;5047826;28;20584;-67
2022/11/27 06:36:34;;;;;;;10.03;6.67;;;;;;;;;;5047339;28;20433;-67
2022/11/27 06:39:00;;;;;;;11.03;7.77;;;;;;;;;;5048719;28;20430;-66
2022/11/27 06:41:27;;;;;;;9.93;6.37;;;;;;;;;;5048954;28;20444;-67
2022/11/27 06:43:53;;;;;;;7.50;6.10;;;;;;;;;;5048911;28;20446;-66
2022/11/27 06:46:20;;;;;;;9.43;6.50;;;;;;;;;;5045953;28;20430;-67
2022/11/27 06:48:47;;;;;;;12.23;7.50;;;;;;;;;;5050645;28;20493;-67
2022/11/27 06:51:14;;;;;;;13.70;6.20;;;;;;;;;;5047192;28;20461;-66
2022/11/27 06:53:40;;;;;;;12.37;8.10;;;;;;;;;;5048689;28;20533;-68
2022/11/27 06:56:07;;;;;;;6.80;6.17;;;;;;;;;;5049072;28;20979;-66
2022/11/27 06:58:34;;;;;;;12.63;7.77;;;;;;;;;;5049000;28;20441;-66
2022/11/27 07:01:02;;;;;;;8.67;6.50;;;;;;;;;;5046480;28;20435;-66
2022/11/27 07:03:28;;;;;;;10.50;6.60;;;;;;;;;;5049942;28;20462;-66
2022/11/27 07:05:54;;;;;;;18.33;6.50;;;;;;;;;;5047130;28;20462;-67
2022/11/27 07:08:21;;;;;;;15.73;7.40;;;;;;;;;;5048539;28;20576;-67
2022/11/27 07:10:47;;;;;;;10.20;7.03;;;;;;;;;;5049686;28;20428;-68
2022/11/27 07:13:13;;;;;;;12.90;6.93;;;;;;;;;;5049886;28;20423;-66
2022/11/27 07:15:39;;;;;;;12.73;8.27;;;;;;;;;;5030544;28;20437;-67
2022/11/27 07:18:05;;;;;;;12.83;7.63;;;;;;;;;;5050959;28;20430;-67
2022/11/27 07:20:31;;;;;;;12.93;7.70;;;;;;;;;;5048371;28;20457;-66
2022/11/27 07:22:57;;;;;;;8.73;6.83;;;;;;;;;;5050016;28;20869;-66
2022/11/27 07:25:23;;;;;;;7.60;6.40;;;;;;;;;;5045819;28;21006;-67
2022/11/27 07:27:49;;;;;;;7.67;5.37;;;;;;;;;;5044917;28;20572;-66
2022/11/27 07:30:15;;;;;;;7.20;5.30;;;;;;;;;;5031654;28;20518;-67
2022/11/27 07:32:41;;;;;;;7.23;6.00;;;;;;;;;;5015728;28;20946;-67
2022/11/27 07:35:07;;;;;;;9.33;5.77;;;;;;;;;;5047385;28;20420;-67
2022/11/27 07:37:33;;;;;;;8.67;6.10;;;;;;;;;;5044809;28;20852;-67
2022/11/27 07:39:59;;;;;;;4.70;4.30;;;;;;;;;;5046211;28;20984;-67
2022/11/27 07:42:27;;;;;;;7.20;5.43;;;;;;;;;;5045779;28;20422;-67
2022/11/27 07:44:53;;;;;;;10.00;5.60;;;;;;;;;;5029573;28;20445;-66
2022/11/27 07:47:19;;;;;;;8.63;5.83;;;;;;;;;;5047258;28;20865;-67
2022/11/27 07:49:45;;;;;;;10.20;6.33;;;;;;;;;;5047844;28;20442;-67
2022/11/27 07:52:11;;;;;;;7.53;6.10;;;;;;;;;;5047677;28;20434;-67
2022/11/27 07:54:38;;;;;;;17.83;6.50;;;;;;;;;;5047979;28;20971;-67
2022/11/27 07:57:04;;;;;;;6.07;5.50;;;;;;;;;;5048528;28;20434;-67
2022/11/27 07:59:30;;;;;;;8.30;5.50;;;;;;;;;;5042436;28;20508;-67
2022/11/27 08:01:57;;;;;;;7.30;6.50;;;;;;;;;;5046882;28;20441;-67
2022/11/27 08:04:23;;;;;;;11.40;5.40;;;;;;;;;;5049396;28;20434;-66
2022/11/27 08:06:49;;;;;;;12.40;5.83;;;;;;;;;;5035125;28;20446;-66
2022/11/27 08:09:15;;;;;;;8.47;6.20;;;;;;;;;;5025078;28;20962;-67
2022/11/27 08:11:41;;;;;;;9.07;7.07;;;;;;;;;;5049484;28;20438;-66
2022/11/27 08:14:08;;;;;;;6.53;5.80;;;;;;;;;;5044381;28;20612;-71
2022/11/27 08:16:34;;;;;;;6.17;5.57;;;;;;;;;;5049554;28;20471;-69
2022/11/27 08:19:01;;;;;;;6.87;6.17;;;;;;;;;;5046198;28;20427;-68
2022/11/27 08:21:27;;;;;;;7.37;6.53;;;;;;;;;;5044258;28;20430;-69
2022/11/27 08:23:54;;;;;;;8.50;5.10;;;;;;;;;;5047950;28;20438;-67
2022/11/27 08:26:20;;;;;;;7.23;5.43;;;;;;;;;;5046397;28;20495;-67
2022/11/27 08:28:46;;;;;;;8.33;6.37;;;;;;;;;;5047227;28;20993;-67
2022/11/27 08:31:13;;;;;;;6.50;4.83;;;;;;;;;;5043459;28;20793;-67
2022/11/27 08:33:40;;;;;;;8.53;5.40;;;;;;;;;;5048972;28;20421;-66
2022/11/27 08:36:06;;;;;;;8.33;6.03;;;;;;;;;;5048506;28;20421;-65
2022/11/27 08:38:32;;;;;;;6.30;5.50;;;;;;;;;;5030913;28;20501;-66
2022/11/27 08:40:59;;;;;;;8.50;5.50;;;;;;;;;;5025201;28;20437;-67
2022/11/27 08:43:25;;;;;;;5.30;4.80;;;;;;;;;;5025505;28;20514;-67
2022/11/27 08:45:52;;;;;;;8.97;5.97;;;;;;;;;;5027661;28;20465;-67
2022/11/27 08:48:18;;;;;;;5.60;4.70;;;;;;;;;;5027792;28;20509;-66
2022/11/27 08:50:44;;;;;;;12.60;5.40;;;;;;;;;;5022907;28;20533;-67
2022/11/27 08:53:11;;;;;;;6.93;4.60;;;;;;;;;;5024919;28;20527;-66
2022/11/27 08:55:37;;;;;;;5.80;5.30;;;;;;;;;;5032147;28;20443;-67
2022/11/27 08:58:03;;;;;;;13.33;5.60;;;;;;;;;;5035462;28;20492;-66
2022/11/27 09:00:29;;;;;;;8.10;6.20;;;;;;;;;;5026216;28;20481;-66
2022/11/27 09:02:55;;;;;;;10.50;7.40;;;;;;;;;;5024637;28;20474;-67
2022/11/27 09:05:21;;;;;;;10.20;6.70;;;;;;;;;;5023059;28;20434;-67
2022/11/27 09:07:47;;;;;;;9.13;7.87;;;;;;;;;;5026846;28;20502;-67
2022/11/27 09:10:13;;;;;;;8.90;8.00;;;;;;;;;;5033170;28;20517;-67
2022/11/27 09:12:39;;;;;;;13.47;8.80;;;;;;;;;;5029322;28;20933;-67
2022/11/27 09:15:05;;;;;;;7.97;6.53;;;;;;;;;;5028533;28;20442;-67
2022/11/27 09:17:31;;;;;;;12.85;7.85;;;;;;;;;;5035178;28;20489;-67
2022/11/27 09:19:57;;;;;;;11.60;7.53;;;;;;;;;;5032140;28;20195;-66
2022/11/27 09:22:23;;;;;;;7.93;6.63;;;;;;;;;;5005345;28;20504;-67
2022/11/27 09:24:49;;;;;;;9.47;6.73;;;;;;;;;;5027364;28;20442;-67
2022/11/27 09:27:15;;;;;;;9.63;7.27;;;;;;;;;;5026701;28;20984;-66
2022/11/27 09:29:41;;;;;;;15.93;7.90;;;;;;;;;;5034874;28;20467;-66
2022/11/27 09:32:07;;;;;;;10.30;7.23;;;;;;;;;;5006625;28;20954;-65
2022/11/27 09:34:33;;;;;;;12.20;7.77;;;;;;;;;;5026065;28;20490;-66
2022/11/27 09:36:59;;;;;;;12.87;8.37;;;;;;;;;;5033370;28;20478;-66
2022/11/27 09:39:29;;;;;;;11.07;7.40;;;;;;;;;;5027290;28;20434;-67
2022/11/27 09:41:57;;;;;;;12.73;8.10;;;;;;;;;;5035009;28;20438;-67
2022/11/27 09:44:39;;;;;;;14.67;7.90;;;;;;;;;;5027255;28;20437;-67
2022/11/27 09:47:21;;;;;;;8.50;6.30;;;;;;;;;;5028697;28;20435;-67
2022/11/27 09:49:49;;;;;;;14.23;8.27;;;;;;;;;;5026925;28;20479;-67
2022/11/27 09:52:36;;;;;;;11.90;8.33;;;;;;;;;;5031562;28;20876;-67
2022/11/27 09:55:05;;;;;;;11.97;7.93;;;;;;;;;;5007566;28;20505;-66
2022/11/27 09:57:34;;;;;;;17.73;7.73;;;;;;;;;;5027039;28;20514;-67
2022/11/27 10:00:02;;;;;;;12.50;8.07;;;;;;;;;;5026548;28;20495;-67
2022/11/27 10:02:30;;;;;;;14.77;8.30;;;;;;;;;;5031985;28;20859;-67
2022/11/27 10:04:58;;;;;;;8.67;7.40;;;;;;;;;;5025203;28;20521;-67
2022/11/27 10:07:39;;;;;;;9.10;8.20;;;;;;;;;;5027757;28;20461;-66
2022/11/27 10:10:23;;;;;;;17.47;13.53;;;;;;;;;;5026204;28;20436;-67
2022/11/27 10:12:55;;;;;;;14.40;8.57;;;;;;;;;;5032055;28;20442;-67
2022/11/27 10:15:38;;;;;;;8.63;7.78;;;;;;;;;;5029936;28;20835;-60
2022/11/27 10:18:27;;;;;;;13.20;8.27;;;;;;;;;;5031981;28;20193;-67
2022/11/27 10:20:59;;;;;;;9.87;7.30;;;;;;;;;;5023755;28;20446;-68
2022/11/27 10:23:40;;;;;;;11.00;7.03;;;;;;;;;;5031690;28;20533;-67
2022/11/27 10:26:20;;;;;;;15.23;8.33;;;;;;;;;;5025544;28;20489;-67
2022/11/27 10:28:50;;;;;;;6.87;6.07;;;;;;;;;;5029666;28;21695;-67
2022/11/27 10:31:20;;;;;;;9.20;7.20;;;;;;;;;;5026591;28;21048;-67
2022/11/27 10:33:50;;;;;;;18.87;12.67;;;;;;;;;;5035809;28;20431;-67
2022/11/27 10:36:26;;;;;;;7.70;6.57;;;;;;;;;;5050698;28;20458;-67
2022/11/27 10:38:53;;;;;;;14.43;9.27;;;;;;;;;;5042576;28;20563;-67
2022/11/27 10:41:24;;;;;;;11.80;7.77;;;;;;;;;;5025236;28;20534;-67
2022/11/27 10:43:53;;;;;;;10.73;7.20;;;;;;;;;;5006970;28;20528;-67
2022/11/27 10:46:24;;;;;;;10.33;6.83;;;;;;;;;;5014343;28;20448;-66
2022/11/27 10:48:50;;;;;;;13.53;7.83;;;;;;;;;;5027248;28;20983;-66
2022/11/27 10:51:22;;;;;;;11.10;7.80;;;;;;;;;;5024662;28;20492;-66
2022/11/27 10:53:51;;;;;;;16.90;7.87;;;;;;;;;;5028969;28;20434;-66
2022/11/27 10:56:27;;;;;;;9.67;7.93;;;;;;;;;;5026860;28;20521;-66
2022/11/27 10:59:00;;;;;;;12.10;8.10;;;;;;;;;;5027894;28;20441;-67
2022/11/27 11:01:28;;;;;;;9.47;7.27;;;;;;;;;;5028707;28;20508;-65
2022/11/27 11:04:20;;;;;;;10.90;7.93;;;;;;;;;;5045394;28;20442;-67
2022/11/27 11:06:48;;;;;;;9.60;6.93;;;;;;;;;;5030894;28;20970;-67
2022/11/27 11:09:16;;;;;;;13.53;8.67;;;;;;;;;;5028354;28;20490;-68
2022/11/27 11:11:42;;;;;;;8.90;6.77;;;;;;;;;;5028549;28;20450;-67
2022/11/27 11:14:15;;;;;;;11.97;8.67;;;;;;;;;;5027075;28;20931;-66
2022/11/27 11:16:42;;;;;;;19.43;10.30;;;;;;;;;;5031989;28;20435;-66
2022/11/27 11:19:22;;;;;;;7.53;6.83;;;;;;;;;;5028473;28;20435;-66
2022/11/27 11:21:48;;;;;;;16.30;7.30;;;;;;;;;;5025583;28;20431;-67
2022/11/27 11:24:17;;;;;;;9.50;8.30;;;;;;;;;;5024300;28;20987;-67
2022/11/27 11:27:00;;;;;;;12.27;7.90;;;;;;;;;;5028459;28;20466;-66
2022/11/27 11:29:28;;;;;;;19.63;8.33;;;;;;;;;;5028860;28;20489;-67
2022/11/27 11:31:55;;;;;;;21.90;10.60;;;;;;;;;;5026623;28;20443;-66
2022/11/27 11:34:28;;;;;;;7.80;7.03;;;;;;;;;;5026270;28;20479;-66
2022/11/27 11:37:05;;;;;;;15.60;7.73;;;;;;;;;;5030938;28;20434;-67
2022/11/27 11:39:43;;;;;;;9.93;7.70;;;;;;;;;;5014305;28;20433;-66
2022/11/27 11:42:10;;;;;;;8.40;7.57;;;;;;;;;;5045919;28;20422;-67
2022/11/27 11:44:37;;;;;;;6.37;5.73;;;;;;;;;;5022861;28;21026;-67
2022/11/27 11:47:03;;;;;;;10.50;7.60;;;;;;;;;;5042479;28;20497;-66
2022/11/27 11:49:29;;;;;;;10.40;8.13;;;;;;;;;;5046553;28;21009;-66
2022/11/27 11:51:55;;;;;;;12.37;7.97;;;;;;;;;;5045622;28;21188;-66
2022/11/27 11:54:48;;;;;;;12.23;6.50;;;;;;;;;;5043491;28;20961;-66
2022/11/27 11:57:29;;;;;;;7.57;6.60;;;;;;;;;;5046680;28;20985;-66
2022/11/27 12:00:20;;;;;;;9.67;5.83;;;;;;;;;;5044127;28;20473;-66
2022/11/27 12:02:55;;;;;;;11.67;7.97;;;;;;;;;;5039910;28;20946;-67
2022/11/27 12:05:44;;;;;;;8.77;6.90;;;;;;;;;;5048687;28;20441;-67
2022/11/27 12:08:10;;;;;;;7.03;5.87;;;;;;;;;;5049678;28;20469;-67
2022/11/27 12:10:36;;;;;;;20.93;12.10;;;;;;;;;;5045381;28;20442;-67
2022/11/27 12:13:33;;;;;;;28.03;15.70;;;;;;;;;;5047489;28;20482;-66
2022/11/27 12:16:06;;;;;;;14.80;9.13;;;;;;;;;;5025345;28;20462;-67
2022/11/27 12:18:46;;;;;;;8.43;6.43;;;;;;;;;;5047723;28;20513;-66
2022/11/27 12:21:15;;;;;;;6.03;5.13;;;;;;;;;;5040485;28;20461;-66
2022/11/27 12:23:56;;;;;;;12.27;7.70;;;;;;;;;;5047806;28;20438;-67
2022/11/27 12:26:46;;;;;;;10.20;6.83;;;;;;;;;;5048119;28;20426;-67
2022/11/27 12:29:37;;;;;;;6.27;5.63;;;;;;;;;;5008073;28;20903;-66
2022/11/27 12:32:21;;;;;;;27.73;13.87;;;;;;;;;;5047967;28;20503;-67
2022/11/27 12:35:06;;;;;;;7.50;6.80;;;;;;;;;;5031569;28;20437;-67
2022/11/27 12:37:47;;;;;;;9.17;6.03;;;;;;;;;;5048608;28;20422;-66
2022/11/27 12:40:28;;;;;;;8.20;5.97;;;;;;;;;;5049718;28;20426;-66
2022/11/27 12:43:12;;;;;;;6.27;5.57;;;;;;;;;;5044701;28;20477;-67
2022/11/27 12:45:41;;;;;;;8.40;7.60;;;;;;;;;;5049151;28;20914;-67
2022/11/27 12:48:24;;;;;;;12.40;7.50;;;;;;;;;;5047715;28;20539;-66
2022/11/27 12:50:55;;;;;;;26.47;14.63;;;;;;;;;;5046419;28;20520;-67
2022/11/27 12:53:27;;;;;;;17.33;11.90;;;;;;;;;;5043082;28;20442;-67
2022/11/27 12:56:02;;;;;;;13.30;9.30;;;;;;;;;;5049021;28;20449;-66
2022/11/27 12:58:31;;;;;;;9.23;8.20;;;;;;;;;;5042346;28;20933;-67
2022/11/27 13:01:01;;;;;;;10.17;7.63;;;;;;;;;;5039709;28;20520;-60
2022/11/27 13:03:45;;;;;;;10.70;8.30;;;;;;;;;;5044738;28;20443;-60
2022/11/27 13:06:13;;;;;;;24.63;12.37;;;;;;;;;;5041619;28;20762;-67
2022/11/27 13:08:39;;;;;;;18.07;13.40;;;;;;;;;;5048555;28;20480;-67
2022/11/27 13:11:07;;;;;;;22.77;13.00;;;;;;;;;;5042718;28;20557;-67
2022/11/27 13:13:37;;;;;;;16.83;10.40;;;;;;;;;;5046651;28;20476;-67
2022/11/27 13:16:17;;;;;;;8.33;6.83;;;;;;;;;;5047003;28;20488;-68
2022/11/27 13:18:45;;;;;;;7.93;7.13;;;;;;;;;;5046337;28;20944;-67
2022/11/27 13:21:13;;;;;;;6.40;5.00;;;;;;;;;;5046329;28;20516;-68
2022/11/27 13:23:39;;;;;;;4.53;4.10;;;;;;;;;;5045238;28;20925;-67
2022/11/27 13:26:06;;;;;;;5.33;4.70;;;;;;;;;;5044856;28;20434;-67
2022/11/27 13:28:40;;;;;;;5.40;5.10;;;;;;;;;;5044624;28;20455;-69
2022/11/27 13:31:07;;;;;;;8.13;4.83;;;;;;;;;;5047487;28;20184;-67
2022/11/27 13:33:35;;;;;;;9.60;5.20;;;;;;;;;;5048249;28;20422;-67
2022/11/27 13:36:03;;;;;;;7.63;5.17;;;;;;;;;;5045165;28;20936;-67
2022/11/27 13:38:33;;;;;;;7.67;5.40;;;;;;;;;;5045843;28;20438;-66
2022/11/27 13:41:04;;;;;;;10.40;6.17;;;;;;;;;;5048878;28;20448;-67
2022/11/27 13:43:36;;;;;;;5.87;5.40;;;;;;;;;;5046279;28;21641;-67
2022/11/27 13:46:06;;;;;;;5.73;5.23;;;;;;;;;;5048951;28;20906;-66
2022/11/27 13:48:34;;;;;;;9.87;4.90;;;;;;;;;;5048124;28;20615;-66
2022/11/27 13:51:00;;;;;;;3.97;3.77;;;;;;;;;;5048512;28;20434;-67
2022/11/27 13:53:30;;;;;;;6.40;5.10;;;;;;;;;;5049049;28;20783;-67
2022/11/27 13:55:57;;;;;;;9.43;5.73;;;;;;;;;;5031727;28;20978;-67
2022/11/27 13:58:30;;;;;;;5.80;5.30;;;;;;;;;;5047523;28;20418;-66
2022/11/27 14:00:56;;;;;;;8.60;6.33;;;;;;;;;;5044749;28;20471;-66
2022/11/27 14:03:26;;;;;;;8.73;6.60;;;;;;;;;;5045304;28;20433;-66
2022/11/27 14:05:52;;;;;;;4.70;4.37;;;;;;;;;;5030106;28;20452;-67
2022/11/27 14:08:26;;;;;;;6.40;5.70;;;;;;;;;;5045543;28;20494;-67
2022/11/27 14:10:58;;;;;;;13.17;5.50;;;;;;;;;;5045971;28;20430;-66
2022/11/27 14:13:38;;;;;;;6.27;5.67;;;;;;;;;;5048307;28;20429;-66
2022/11/27 14:16:07;;;;;;;6.53;5.93;;;;;;;;;;5046183;28;20437;-67
2022/11/27 14:18:34;;;;;;;6.10;5.37;;;;;;;;;;5045513;28;20435;-66
2022/11/27 14:21:03;;;;;;;7.87;5.50;;;;;;;;;;5049162;28;20541;-67
2022/11/27 14:23:31;;;;;;;5.83;5.17;;;;;;;;;;5029595;28;20415;-66
2022/11/27 14:26:05;;;;;;;4.80;4.60;;;;;;;;;;5043670;28;20915;-67
2022/11/27 14:28:34;;;;;;;9.80;5.90;;;;;;;;;;5044073;28;20905;-66
2022/11/27 14:31:01;;;;;;;6.57;6.00;;;;;;;;;;5042083;28;20796;-66
2022/11/27 14:33:27;;;;;;;4.10;3.90;;;;;;;;;;5044585;28;20836;-66
2022/11/27 14:35:54;;;;;;;5.70;5.30;;;;;;;;;;5034848;28;20443;-66
2022/11/27 14:38:20;;;;;;;4.57;4.27;;;;;;;;;;5042641;28;20430;-66
2022/11/27 14:40:46;;;;;;;4.23;4.03;;;;;;;;;;5044907;28;20434;-66
2022/11/27 14:43:16;;;;;;;4.43;4.17;;;;;;;;;;5030985;28;20988;-66
2022/11/27 14:45:53;;;;;;;5.60;5.20;;;;;;;;;;5046791;28;20426;-66
2022/11/27 14:48:20;;;;;;;6.63;5.83;;;;;;;;;;5051334;28;20531;-66
2022/11/27 14:50:47;;;;;;;4.87;4.40;;;;;;;;;;5049695;28;20430;-67
2022/11/27 14:53:13;;;;;;;4.43;4.13;;;;;;;;;;5045251;28;20430;-67